Great Malvern, United Kingdom

2:50 AM GMT on January 28, 2015 (GMT +0000)
Malvern Link | Change Station
CLOSE
Current Station
Personal Weather Station
Location: Great Malvern, WORCS
Elevation: 141 ft
Nearby Weather Stations

Elev 141 ft 52.12 °N, 2.31 °W | Updated 1 second ago

Overcast
Overcast
46.6 °F
Feels Like 41 °F
N
13.0
Wind Variable Wind from WSW
Gusts 21.0 mph

Today
High -- | Low -- °F
--% Chance of Precip.
Yesterday
High -- | Low -- °F
Precip. -- in
7:56 AM 4:48 PM
First Quarter, 60% visible
Pressure 29.95 in
Visibility 6.2 miles
Clouds Mostly Cloudy 800 ft
Overcast 1300 ft
Windchill 41 °F
Dew Point 44 °F
Humidity 89%
Rainfall 0.00 in
Snow Depth Not available.
UV 0 out of 12
Pollen Not available.
Air Quality Not available.
Flu Activity Not available.
SPECI EGVA 280233Z AUTO 21011G20KT 9999 BKN008 OVC013 06/05 A2995 RMK AO2 CIG 008V013 BKN V SCT $

More Conditions Fewer Conditions

Pressure 29.95 in
Visibility 6.2 miles
Clouds Mostly Cloudy 800 ft
Overcast 1300 ft
Windchill 41 °F
Dew Point 44 °F
Humidity 89%
Rainfall 0.00 in
Snow Depth Not available.
UV 0 out of 12
Pollen Not available.
Air Quality Not available.
Flu Activity Not available.
SPECI EGVA 280233Z AUTO 21011G20KT 9999 BKN008 OVC013 06/05 A2995 RMK AO2 CIG 008V013 BKN V SCT $

More Conditions Fewer Conditions

10-Day Weather Forecast

Almanac

Astronomy

Jan. 28, 2015 Rise Set
Actual Time
Civil Twilight
Nautical Twilight
Astronomical Twilight
Moon
Length of Visible Light
Length of Day
Tomorrow will be .
, % of the Moon is Illuminated

Today's Extremes

Country Highs Country Lows

Community

WunderPhotos

Upload Photos

1,791,060 photos uploaded!

WunderBlogs® & News

Nearby

Air Quality

  Air Quality AQ Index Pollutant
Not available.

Snow Depth

Station Depth Elevation

Earthquake Activity

City Distance Mag. Time & Date
Minimum magnitude displayed is 2.5.

Coastal Water Temperatures

Place Temperature

Nearby Weather Stations